sensor_id;sensor_type;location;lat;lon;timestamp;P1;durP1;ratioP1;P2;durP2;ratioP2
45836;SDS011;31548;51.420;-0.040;2023-02-10T00:01:22;20.15;;;6.15;;
45836;SDS011;31548;51.420;-0.040;2023-02-10T00:03:54;19.20;;;6.65;;
45836;SDS011;31548;51.420;-0.040;2023-02-10T00:06:23;12.35;;;5.72;;
45836;SDS011;31548;51.420;-0.040;2023-02-10T00:08:53;17.42;;;6.95;;
45836;SDS011;31548;51.420;-0.040;2023-02-10T00:11:23;15.80;;;5.90;;
45836;SDS011;31548;51.420;-0.040;2023-02-10T00:14:11;14.70;;;5.50;;
45836;SDS011;31548;51.420;-0.040;2023-02-10T00:16:39;15.43;;;6.05;;
45836;SDS011;31548;51.420;-0.040;2023-02-10T00:19:07;18.92;;;6.07;;
45836;SDS011;31548;51.420;-0.040;2023-02-10T00:21:34;15.82;;;6.90;;
45836;SDS011;31548;51.420;-0.040;2023-02-10T00:24:02;17.42;;;5.75;;
45836;SDS011;31548;51.420;-0.040;2023-02-10T00:26:30;15.40;;;5.10;;
45836;SDS011;31548;51.420;-0.040;2023-02-10T00:28:57;16.60;;;6.13;;
45836;SDS011;31548;51.420;-0.040;2023-02-10T00:31:24;11.32;;;5.53;;
45836;SDS011;31548;51.420;-0.040;2023-02-10T00:33:52;17.02;;;6.18;;
45836;SDS011;31548;51.420;-0.040;2023-02-10T00:36:19;18.77;;;6.15;;
45836;SDS011;31548;51.420;-0.040;2023-02-10T00:38:50;16.33;;;5.65;;
45836;SDS011;31548;51.420;-0.040;2023-02-10T00:41:18;15.85;;;5.10;;
45836;SDS011;31548;51.420;-0.040;2023-02-10T00:43:47;14.30;;;5.00;;
45836;SDS011;31548;51.420;-0.040;2023-02-10T00:46:16;14.90;;;5.40;;
45836;SDS011;31548;51.420;-0.040;2023-02-10T00:48:45;14.15;;;5.15;;
45836;SDS011;31548;51.420;-0.040;2023-02-10T00:51:13;14.70;;;5.47;;
45836;SDS011;31548;51.420;-0.040;2023-02-10T00:53:41;13.18;;;5.57;;
45836;SDS011;31548;51.420;-0.040;2023-02-10T00:56:10;15.23;;;4.60;;
45836;SDS011;31548;51.420;-0.040;2023-02-10T00:58:37;13.43;;;4.93;;
45836;SDS011;31548;51.420;-0.040;2023-02-10T01:01:05;10.48;;;4.50;;
45836;SDS011;31548;51.420;-0.040;2023-02-10T01:03:34;13.00;;;4.90;;
45836;SDS011;31548;51.420;-0.040;2023-02-10T01:06:02;14.55;;;4.78;;
45836;SDS011;31548;51.420;-0.040;2023-02-10T01:08:30;14.95;;;5.57;;
45836;SDS011;31548;51.420;-0.040;2023-02-10T01:11:02;13.35;;;5.78;;
45836;SDS011;31548;51.420;-0.040;2023-02-10T01:13:34;14.15;;;5.30;;
45836;SDS011;31548;51.420;-0.040;2023-02-10T01:16:06;11.63;;;4.93;;
45836;SDS011;31548;51.420;-0.040;2023-02-10T01:18:39;11.77;;;5.10;;
45836;SDS011;31548;51.420;-0.040;2023-02-10T01:21:11;16.00;;;5.32;;
45836;SDS011;31548;51.420;-0.040;2023-02-10T01:23:41;13.45;;;5.35;;
45836;SDS011;31548;51.420;-0.040;2023-02-10T01:26:09;14.77;;;5.68;;
45836;SDS011;31548;51.420;-0.040;2023-02-10T01:28:37;13.00;;;4.72;;
45836;SDS011;31548;51.420;-0.040;2023-02-10T01:31:06;13.73;;;4.57;;
45836;SDS011;31548;51.420;-0.040;2023-02-10T01:33:35;11.68;;;4.00;;
45836;SDS011;31548;51.420;-0.040;2023-02-10T01:36:04;18.30;;;5.50;;
45836;SDS011;31548;51.420;-0.040;2023-02-10T01:38:32;14.35;;;5.25;;
45836;SDS011;31548;51.420;-0.040;2023-02-10T01:41:02;16.05;;;5.07;;
45836;SDS011;31548;51.420;-0.040;2023-02-10T01:43:32;13.60;;;4.93;;
45836;SDS011;31548;51.420;-0.040;2023-02-10T01:45:59;12.93;;;4.72;;
45836;SDS011;31548;51.420;-0.040;2023-02-10T01:48:27;11.07;;;4.45;;
45836;SDS011;31548;51.420;-0.040;2023-02-10T01:50:57;12.23;;;5.00;;
45836;SDS011;31548;51.420;-0.040;2023-02-10T01:53:29;13.10;;;4.68;;
45836;SDS011;31548;51.420;-0.040;2023-02-10T01:55:58;14.32;;;4.68;;
45836;SDS011;31548;51.420;-0.040;2023-02-10T01:58:29;11.25;;;3.97;;
45836;SDS011;31548;51.420;-0.040;2023-02-10T02:01:01;13.02;;;4.78;;
45836;SDS011;31548;51.420;-0.040;2023-02-10T02:03:29;13.07;;;5.60;;
45836;SDS011;31548;51.420;-0.040;2023-02-10T02:05:56;16.42;;;5.68;;
45836;SDS011;31548;51.420;-0.040;2023-02-10T02:08:24;11.98;;;5.07;;
45836;SDS011;31548;51.420;-0.040;2023-02-10T02:34:07;8.85;;;3.58;;
45836;SDS011;31548;51.420;-0.040;2023-02-10T02:36:50;10.43;;;4.25;;
45836;SDS011;31548;51.420;-0.040;2023-02-10T02:39:27;10.43;;;3.75;;
45836;SDS011;31548;51.420;-0.040;2023-02-10T02:44:55;11.18;;;3.40;;
45836;SDS011;31548;51.420;-0.040;2023-02-10T02:50:27;9.32;;;2.75;;
45836;SDS011;31548;51.420;-0.040;2023-02-10T02:55:55;12.73;;;5.03;;
45836;SDS011;31548;51.420;-0.040;2023-02-10T02:58:41;12.65;;;4.22;;
45836;SDS011;31548;51.420;-0.040;2023-02-10T03:04:07;12.93;;;4.22;;
45836;SDS011;31548;51.420;-0.040;2023-02-10T03:06:39;9.20;;;3.90;;
45836;SDS011;31548;51.420;-0.040;2023-02-10T03:09:07;12.32;;;3.72;;
45836;SDS011;31548;51.420;-0.040;2023-02-10T03:11:34;9.77;;;3.75;;
45836;SDS011;31548;51.420;-0.040;2023-02-10T03:14:02;12.25;;;3.42;;
45836;SDS011;31548;51.420;-0.040;2023-02-10T03:16:29;10.27;;;4.07;;
45836;SDS011;31548;51.420;-0.040;2023-02-10T03:18:57;13.95;;;3.53;;
45836;SDS011;31548;51.420;-0.040;2023-02-10T03:21:24;10.75;;;2.80;;
45836;SDS011;31548;51.420;-0.040;2023-02-10T03:23:52;7.60;;;3.55;;
45836;SDS011;31548;51.420;-0.040;2023-02-10T03:26:19;9.23;;;2.85;;
45836;SDS011;31548;51.420;-0.040;2023-02-10T03:28:47;8.63;;;4.10;;
45836;SDS011;31548;51.420;-0.040;2023-02-10T03:31:14;10.05;;;3.80;;
45836;SDS011;31548;51.420;-0.040;2023-02-10T03:33:41;8.23;;;3.35;;
45836;SDS011;31548;51.420;-0.040;2023-02-10T03:36:09;8.95;;;3.42;;
45836;SDS011;31548;51.420;-0.040;2023-02-10T03:38:36;9.75;;;3.70;;
45836;SDS011;31548;51.420;-0.040;2023-02-10T03:41:04;11.98;;;4.00;;
45836;SDS011;31548;51.420;-0.040;2023-02-10T03:43:31;11.02;;;3.33;;
45836;SDS011;31548;51.420;-0.040;2023-02-10T03:45:59;9.23;;;4.05;;
45836;SDS011;31548;51.420;-0.040;2023-02-10T03:48:28;9.50;;;3.63;;
45836;SDS011;31548;51.420;-0.040;2023-02-10T03:50:59;7.35;;;2.83;;
45836;SDS011;31548;51.420;-0.040;2023-02-10T03:53:28;8.85;;;3.30;;
45836;SDS011;31548;51.420;-0.040;2023-02-10T03:55:57;12.10;;;3.72;;
45836;SDS011;31548;51.420;-0.040;2023-02-10T03:58:24;5.90;;;2.90;;
45836;SDS011;31548;51.420;-0.040;2023-02-10T04:00:52;6.50;;;2.78;;
45836;SDS011;31548;51.420;-0.040;2023-02-10T04:03:19;7.43;;;3.33;;
45836;SDS011;31548;51.420;-0.040;2023-02-10T04:05:47;6.30;;;2.92;;
45836;SDS011;31548;51.420;-0.040;2023-02-10T04:08:15;8.15;;;3.45;;
45836;SDS011;31548;51.420;-0.040;2023-02-10T04:10:43;7.22;;;2.55;;
45836;SDS011;31548;51.420;-0.040;2023-02-10T04:13:10;6.70;;;3.28;;
45836;SDS011;31548;51.420;-0.040;2023-02-10T04:15:37;6.35;;;2.85;;
45836;SDS011;31548;51.420;-0.040;2023-02-10T04:18:05;8.20;;;3.28;;
45836;SDS011;31548;51.420;-0.040;2023-02-10T04:20:32;14.68;;;3.72;;
45836;SDS011;31548;51.420;-0.040;2023-02-10T04:23:00;13.15;;;3.67;;
45836;SDS011;31548;51.420;-0.040;2023-02-10T04:25:27;9.82;;;3.72;;
45836;SDS011;31548;51.420;-0.040;2023-02-10T04:27:54;13.48;;;4.43;;
45836;SDS011;31548;51.420;-0.040;2023-02-10T04:30:22;10.27;;;3.67;;
45836;SDS011;31548;51.420;-0.040;2023-02-10T04:32:50;9.77;;;2.85;;
45836;SDS011;31548;51.420;-0.040;2023-02-10T04:35:17;7.35;;;2.78;;
45836;SDS011;31548;51.420;-0.040;2023-02-10T04:37:44;9.40;;;3.53;;
45836;SDS011;31548;51.420;-0.040;2023-02-10T04:40:12;10.85;;;3.63;;
45836;SDS011;31548;51.420;-0.040;2023-02-10T04:42:39;11.15;;;3.40;;
45836;SDS011;31548;51.420;-0.040;2023-02-10T04:45:06;6.47;;;2.92;;
45836;SDS011;31548;51.420;-0.040;2023-02-10T04:47:34;6.47;;;3.58;;
45836;SDS011;31548;51.420;-0.040;2023-02-10T04:50:02;9.23;;;3.55;;
45836;SDS011;31548;51.420;-0.040;2023-02-10T04:52:30;9.40;;;3.38;;
45836;SDS011;31548;51.420;-0.040;2023-02-10T04:54:58;14.38;;;4.00;;
45836;SDS011;31548;51.420;-0.040;2023-02-10T04:57:25;8.65;;;3.42;;
45836;SDS011;31548;51.420;-0.040;2023-02-10T04:59:53;12.32;;;3.28;;
45836;SDS011;31548;51.420;-0.040;2023-02-10T05:02:20;13.55;;;4.25;;
45836;SDS011;31548;51.420;-0.040;2023-02-10T05:04:47;9.32;;;3.10;;
45836;SDS011;31548;51.420;-0.040;2023-02-10T05:07:15;10.23;;;2.67;;
45836;SDS011;31548;51.420;-0.040;2023-02-10T05:09:42;11.05;;;4.43;;
45836;SDS011;31548;51.420;-0.040;2023-02-10T05:12:10;7.68;;;3.22;;
45836;SDS011;31548;51.420;-0.040;2023-02-10T05:14:37;8.45;;;3.85;;
45836;SDS011;31548;51.420;-0.040;2023-02-10T05:17:04;10.98;;;4.15;;
45836;SDS011;31548;51.420;-0.040;2023-02-10T05:19:31;5.60;;;3.15;;
45836;SDS011;31548;51.420;-0.040;2023-02-10T05:21:59;9.30;;;3.47;;
45836;SDS011;31548;51.420;-0.040;2023-02-10T05:24:26;10.43;;;3.38;;
45836;SDS011;31548;51.420;-0.040;2023-02-10T05:26:54;11.18;;;3.40;;
45836;SDS011;31548;51.420;-0.040;2023-02-10T05:29:21;7.65;;;3.88;;
45836;SDS011;31548;51.420;-0.040;2023-02-10T05:31:48;9.95;;;3.28;;
45836;SDS011;31548;51.420;-0.040;2023-02-10T05:34:16;10.15;;;3.60;;
45836;SDS011;31548;51.420;-0.040;2023-02-10T05:36:43;8.73;;;2.97;;
45836;SDS011;31548;51.420;-0.040;2023-02-10T05:39:11;8.07;;;3.70;;
45836;SDS011;31548;51.420;-0.040;2023-02-10T05:44:19;7.63;;;3.38;;
45836;SDS011;31548;51.420;-0.040;2023-02-10T05:46:47;12.25;;;3.13;;
45836;SDS011;31548;51.420;-0.040;2023-02-10T05:49:15;6.00;;;3.08;;
45836;SDS011;31548;51.420;-0.040;2023-02-10T05:51:43;9.43;;;3.47;;
45836;SDS011;31548;51.420;-0.040;2023-02-10T05:54:10;6.00;;;3.17;;
45836;SDS011;31548;51.420;-0.040;2023-02-10T05:56:38;8.70;;;3.63;;
45836;SDS011;31548;51.420;-0.040;2023-02-10T05:59:06;9.20;;;3.13;;
45836;SDS011;31548;51.420;-0.040;2023-02-10T06:01:33;5.63;;;2.60;;
45836;SDS011;31548;51.420;-0.040;2023-02-10T06:04:01;6.38;;;2.65;;
45836;SDS011;31548;51.420;-0.040;2023-02-10T06:06:28;7.18;;;2.90;;
45836;SDS011;31548;51.420;-0.040;2023-02-10T06:08:55;7.78;;;2.58;;
45836;SDS011;31548;51.420;-0.040;2023-02-10T06:11:23;6.93;;;2.78;;
45836;SDS011;31548;51.420;-0.040;2023-02-10T06:13:50;5.25;;;2.65;;
45836;SDS011;31548;51.420;-0.040;2023-02-10T06:16:17;9.05;;;2.97;;
45836;SDS011;31548;51.420;-0.040;2023-02-10T06:18:45;8.27;;;2.85;;
45836;SDS011;31548;51.420;-0.040;2023-02-10T06:21:17;7.38;;;2.78;;
45836;SDS011;31548;51.420;-0.040;2023-02-10T06:24:06;8.90;;;3.20;;
45836;SDS011;31548;51.420;-0.040;2023-02-10T06:26:34;7.07;;;2.67;;
45836;SDS011;31548;51.420;-0.040;2023-02-10T06:29:01;9.52;;;2.50;;
45836;SDS011;31548;51.420;-0.040;2023-02-10T06:31:29;7.18;;;3.08;;
45836;SDS011;31548;51.420;-0.040;2023-02-10T06:33:56;12.85;;;3.85;;
45836;SDS011;31548;51.420;-0.040;2023-02-10T06:36:24;10.38;;;3.80;;
45836;SDS011;31548;51.420;-0.040;2023-02-10T06:38:51;10.23;;;3.22;;
45836;SDS011;31548;51.420;-0.040;2023-02-10T06:41:19;8.13;;;2.80;;
45836;SDS011;31548;51.420;-0.040;2023-02-10T06:43:46;5.88;;;2.63;;
45836;SDS011;31548;51.420;-0.040;2023-02-10T06:46:20;9.95;;;2.85;;
45836;SDS011;31548;51.420;-0.040;2023-02-10T06:48:51;6.68;;;2.97;;
45836;SDS011;31548;51.420;-0.040;2023-02-10T06:51:19;8.35;;;3.15;;
45836;SDS011;31548;51.420;-0.040;2023-02-10T06:53:46;7.40;;;3.25;;
45836;SDS011;31548;51.420;-0.040;2023-02-10T06:56:14;13.70;;;4.20;;
45836;SDS011;31548;51.420;-0.040;2023-02-10T06:58:41;6.90;;;3.65;;
45836;SDS011;31548;51.420;-0.040;2023-02-10T07:01:09;10.20;;;4.13;;
45836;SDS011;31548;51.420;-0.040;2023-02-10T07:03:39;10.50;;;3.72;;
45836;SDS011;31548;51.420;-0.040;2023-02-10T07:06:06;10.02;;;3.83;;
45836;SDS011;31548;51.420;-0.040;2023-02-10T07:08:34;7.72;;;3.35;;
45836;SDS011;31548;51.420;-0.040;2023-02-10T07:11:01;9.20;;;3.92;;
45836;SDS011;31548;51.420;-0.040;2023-02-10T07:13:29;7.78;;;4.00;;
45836;SDS011;31548;51.420;-0.040;2023-02-10T07:15:57;6.10;;;3.00;;
45836;SDS011;31548;51.420;-0.040;2023-02-10T07:18:25;9.48;;;3.78;;
45836;SDS011;31548;51.420;-0.040;2023-02-10T07:20:54;9.88;;;3.75;;
45836;SDS011;31548;51.420;-0.040;2023-02-10T07:23:21;8.25;;;3.08;;
45836;SDS011;31548;51.420;-0.040;2023-02-10T07:26:02;8.38;;;3.70;;
45836;SDS011;31548;51.420;-0.040;2023-02-10T07:28:32;8.85;;;3.15;;
45836;SDS011;31548;51.420;-0.040;2023-02-10T07:31:00;5.63;;;3.30;;
45836;SDS011;31548;51.420;-0.040;2023-02-10T07:33:27;9.10;;;4.53;;
45836;SDS011;31548;51.420;-0.040;2023-02-10T07:35:58;7.00;;;3.03;;
45836;SDS011;31548;51.420;-0.040;2023-02-10T07:38:27;7.68;;;3.83;;
45836;SDS011;31548;51.420;-0.040;2023-02-10T07:40:55;8.75;;;4.13;;
45836;SDS011;31548;51.420;-0.040;2023-02-10T07:43:22;7.75;;;4.15;;
45836;SDS011;31548;51.420;-0.040;2023-02-10T07:46:03;11.98;;;4.05;;
45836;SDS011;31548;51.420;-0.040;2023-02-10T07:48:31;8.13;;;4.22;;
45836;SDS011;31548;51.420;-0.040;2023-02-10T07:50:58;9.98;;;4.18;;
45836;SDS011;31548;51.420;-0.040;2023-02-10T07:53:25;12.55;;;4.22;;
45836;SDS011;31548;51.420;-0.040;2023-02-10T07:55:53;8.00;;;4.22;;
45836;SDS011;31548;51.420;-0.040;2023-02-10T07:58:20;7.43;;;4.03;;
45836;SDS011;31548;51.420;-0.040;2023-02-10T08:00:48;6.32;;;3.75;;
45836;SDS011;31548;51.420;-0.040;2023-02-10T08:03:15;7.28;;;3.22;;
45836;SDS011;31548;51.420;-0.040;2023-02-10T08:05:43;6.07;;;3.40;;
45836;SDS011;31548;51.420;-0.040;2023-02-10T08:08:10;8.13;;;3.70;;
45836;SDS011;31548;51.420;-0.040;2023-02-10T08:10:40;6.85;;;3.80;;
45836;SDS011;31548;51.420;-0.040;2023-02-10T08:13:07;9.35;;;4.40;;
45836;SDS011;31548;51.420;-0.040;2023-02-10T08:15:35;9.65;;;4.18;;
45836;SDS011;31548;51.420;-0.040;2023-02-10T08:18:02;9.13;;;4.55;;
45836;SDS011;31548;51.420;-0.040;2023-02-10T08:20:30;8.90;;;4.38;;
45836;SDS011;31548;51.420;-0.040;2023-02-10T08:22:57;6.63;;;3.38;;
45836;SDS011;31548;51.420;-0.040;2023-02-10T08:25:26;8.38;;;4.05;;
45836;SDS011;31548;51.420;-0.040;2023-02-10T08:27:54;9.85;;;4.40;;
45836;SDS011;31548;51.420;-0.040;2023-02-10T08:30:21;14.30;;;4.50;;
45836;SDS011;31548;51.420;-0.040;2023-02-10T08:32:48;11.30;;;4.43;;
45836;SDS011;31548;51.420;-0.040;2023-02-10T08:35:16;13.18;;;4.25;;
45836;SDS011;31548;51.420;-0.040;2023-02-10T08:37:43;10.60;;;5.25;;
45836;SDS011;31548;51.420;-0.040;2023-02-10T08:40:11;10.18;;;4.88;;
45836;SDS011;31548;51.420;-0.040;2023-02-10T08:42:38;12.77;;;4.57;;
45836;SDS011;31548;51.420;-0.040;2023-02-10T08:45:05;9.20;;;4.72;;
45836;SDS011;31548;51.420;-0.040;2023-02-10T08:47:33;8.35;;;4.03;;
45836;SDS011;31548;51.420;-0.040;2023-02-10T08:50:01;11.10;;;5.07;;
45836;SDS011;31548;51.420;-0.040;2023-02-10T08:52:28;12.07;;;6.85;;
45836;SDS011;31548;51.420;-0.040;2023-02-10T08:54:56;13.07;;;5.90;;
45836;SDS011;31548;51.420;-0.040;2023-02-10T08:57:23;11.25;;;5.72;;
45836;SDS011;31548;51.420;-0.040;2023-02-10T08:59:50;13.48;;;6.63;;
45836;SDS011;31548;51.420;-0.040;2023-02-10T09:02:18;15.18;;;6.10;;
45836;SDS011;31548;51.420;-0.040;2023-02-10T09:04:45;12.20;;;4.88;;
45836;SDS011;31548;51.420;-0.040;2023-02-10T09:07:19;11.50;;;6.00;;
45836;SDS011;31548;51.420;-0.040;2023-02-10T09:09:49;9.57;;;5.35;;
45836;SDS011;31548;51.420;-0.040;2023-02-10T09:12:16;14.63;;;7.07;;
45836;SDS011;31548;51.420;-0.040;2023-02-10T09:14:44;23.98;;;9.23;;
45836;SDS011;31548;51.420;-0.040;2023-02-10T09:17:11;23.17;;;7.25;;
45836;SDS011;31548;51.420;-0.040;2023-02-10T09:19:39;19.17;;;8.23;;
45836;SDS011;31548;51.420;-0.040;2023-02-10T09:22:07;12.43;;;6.18;;
45836;SDS011;31548;51.420;-0.040;2023-02-10T09:24:34;18.77;;;7.50;;
45836;SDS011;31548;51.420;-0.040;2023-02-10T09:27:01;23.38;;;7.80;;
45836;SDS011;31548;51.420;-0.040;2023-02-10T09:29:29;17.13;;;6.05;;
45836;SDS011;31548;51.420;-0.040;2023-02-10T09:31:56;10.38;;;5.28;;
45836;SDS011;31548;51.420;-0.040;2023-02-10T09:34:24;12.52;;;5.95;;
45836;SDS011;31548;51.420;-0.040;2023-02-10T09:36:51;15.98;;;7.80;;
45836;SDS011;31548;51.420;-0.040;2023-02-10T09:39:21;15.05;;;6.07;;
45836;SDS011;31548;51.420;-0.040;2023-02-10T09:41:55;15.75;;;5.57;;
45836;SDS011;31548;51.420;-0.040;2023-02-10T09:44:54;14.90;;;5.32;;
45836;SDS011;31548;51.420;-0.040;2023-02-10T09:55:48;20.27;;;7.07;;
45836;SDS011;31548;51.420;-0.040;2023-02-10T10:00:56;20.23;;;8.93;;
45836;SDS011;31548;51.420;-0.040;2023-02-10T10:03:34;24.20;;;9.38;;
45836;SDS011;31548;51.420;-0.040;2023-02-10T10:06:12;19.92;;;7.43;;
45836;SDS011;31548;51.420;-0.040;2023-02-10T10:11:33;18.85;;;6.43;;
45836;SDS011;31548;51.420;-0.040;2023-02-10T10:14:16;17.05;;;5.20;;
45836;SDS011;31548;51.420;-0.040;2023-02-10T10:25:37;15.77;;;5.88;;
45836;SDS011;31548;51.420;-0.040;2023-02-10T10:28:33;14.52;;;5.18;;
45836;SDS011;31548;51.420;-0.040;2023-02-10T10:31:18;7.88;;;3.95;;
45836;SDS011;31548;51.420;-0.040;2023-02-10T10:33:51;25.95;;;5.68;;
45836;SDS011;31548;51.420;-0.040;2023-02-10T10:36:36;17.08;;;5.07;;
45836;SDS011;31548;51.420;-0.040;2023-02-10T10:41:54;15.30;;;5.28;;
45836;SDS011;31548;51.420;-0.040;2023-02-10T10:44:23;20.08;;;4.70;;
45836;SDS011;31548;51.420;-0.040;2023-02-10T10:46:55;13.70;;;4.57;;
45836;SDS011;31548;51.420;-0.040;2023-02-10T10:49:35;13.95;;;3.97;;
45836;SDS011;31548;51.420;-0.040;2023-02-10T10:52:09;12.88;;;5.05;;
45836;SDS011;31548;51.420;-0.040;2023-02-10T10:55:47;13.00;;;4.82;;
45836;SDS011;31548;51.420;-0.040;2023-02-10T10:57:59;16.83;;;4.38;;
45836;SDS011;31548;51.420;-0.040;2023-02-10T11:00:29;14.10;;;3.63;;
45836;SDS011;31548;51.420;-0.040;2023-02-10T11:02:58;13.02;;;5.22;;
45836;SDS011;31548;51.420;-0.040;2023-02-10T11:05:27;15.63;;;3.40;;
45836;SDS011;31548;51.420;-0.040;2023-02-10T11:08:03;12.55;;;3.85;;
45836;SDS011;31548;51.420;-0.040;2023-02-10T11:13:05;14.77;;;3.33;;
45836;SDS011;31548;51.420;-0.040;2023-02-10T11:15:43;16.73;;;4.72;;
45836;SDS011;31548;51.420;-0.040;2023-02-10T11:18:18;18.35;;;3.90;;
45836;SDS011;31548;51.420;-0.040;2023-02-10T11:21:07;19.92;;;4.43;;
45836;SDS011;31548;51.420;-0.040;2023-02-10T11:23:50;19.17;;;3.88;;
45836;SDS011;31548;51.420;-0.040;2023-02-10T11:26:23;13.68;;;3.92;;
45836;SDS011;31548;51.420;-0.040;2023-02-10T11:28:52;26.05;;;4.20;;
45836;SDS011;31548;51.420;-0.040;2023-02-10T11:31:33;16.90;;;2.80;;
45836;SDS011;31548;51.420;-0.040;2023-02-10T11:34:21;14.63;;;3.78;;
45836;SDS011;31548;51.420;-0.040;2023-02-10T11:36:53;22.52;;;5.05;;
45836;SDS011;31548;51.420;-0.040;2023-02-10T11:39:28;14.10;;;3.58;;
45836;SDS011;31548;51.420;-0.040;2023-02-10T11:42:07;20.98;;;4.00;;
45836;SDS011;31548;51.420;-0.040;2023-02-10T11:44:51;15.68;;;3.65;;
45836;SDS011;31548;51.420;-0.040;2023-02-10T11:47:27;24.42;;;4.25;;
45836;SDS011;31548;51.420;-0.040;2023-02-10T11:49:56;16.70;;;3.65;;
45836;SDS011;31548;51.420;-0.040;2023-02-10T11:52:26;17.05;;;3.78;;
45836;SDS011;31548;51.420;-0.040;2023-02-10T11:54:56;20.80;;;4.43;;
45836;SDS011;31548;51.420;-0.040;2023-02-10T11:57:40;19.55;;;3.97;;
45836;SDS011;31548;51.420;-0.040;2023-02-10T12:00:41;20.88;;;3.75;;
45836;SDS011;31548;51.420;-0.040;2023-02-10T12:05:39;23.38;;;4.82;;
45836;SDS011;31548;51.420;-0.040;2023-02-10T12:11:17;18.38;;;3.50;;
45836;SDS011;31548;51.420;-0.040;2023-02-10T12:16:48;15.25;;;2.75;;
45836;SDS011;31548;51.420;-0.040;2023-02-10T12:27:45;12.15;;;1.90;;
45836;SDS011;31548;51.420;-0.040;2023-02-10T12:38:58;22.10;;;2.92;;
45836;SDS011;31548;51.420;-0.040;2023-02-10T12:45:00;23.38;;;4.10;;
45836;SDS011;31548;51.420;-0.040;2023-02-10T12:50:35;17.58;;;2.78;;
45836;SDS011;31548;51.420;-0.040;2023-02-10T12:53:26;16.42;;;3.28;;
45836;SDS011;31548;51.420;-0.040;2023-02-10T12:56:01;15.50;;;3.10;;
45836;SDS011;31548;51.420;-0.040;2023-02-10T12:58:50;19.73;;;3.75;;
45836;SDS011;31548;51.420;-0.040;2023-02-10T13:01:35;12.50;;;2.60;;
45836;SDS011;31548;51.420;-0.040;2023-02-10T13:06:47;11.93;;;2.50;;
45836;SDS011;31548;51.420;-0.040;2023-02-10T13:12:28;19.85;;;3.42;;
45836;SDS011;31548;51.420;-0.040;2023-02-10T13:15:06;24.15;;;2.97;;
45836;SDS011;31548;51.420;-0.040;2023-02-10T13:17:46;14.10;;;2.85;;
45836;SDS011;31548;51.420;-0.040;2023-02-10T13:20:19;20.65;;;2.25;;
45836;SDS011;31548;51.420;-0.040;2023-02-10T13:28:45;16.23;;;2.30;;
45836;SDS011;31548;51.420;-0.040;2023-02-10T13:36:44;15.30;;;3.47;;
45836;SDS011;31548;51.420;-0.040;2023-02-10T13:39:49;22.48;;;5.10;;
45836;SDS011;31548;51.420;-0.040;2023-02-10T13:42:29;32.15;;;3.25;;
45836;SDS011;31548;51.420;-0.040;2023-02-10T13:47:38;13.63;;;1.83;;
45836;SDS011;31548;51.420;-0.040;2023-02-10T13:57:59;17.55;;;1.73;;
45836;SDS011;31548;51.420;-0.040;2023-02-10T14:00:46;14.98;;;2.05;;
45836;SDS011;31548;51.420;-0.040;2023-02-10T14:06:02;15.00;;;1.33;;
45836;SDS011;31548;51.420;-0.040;2023-02-10T14:16:36;13.65;;;0.98;;
45836;SDS011;31548;51.420;-0.040;2023-02-10T14:19:19;11.07;;;1.35;;
45836;SDS011;31548;51.420;-0.040;2023-02-10T14:21:54;11.82;;;1.15;;
45836;SDS011;31548;51.420;-0.040;2023-02-10T14:24:23;24.15;;;2.03;;
45836;SDS011;31548;51.420;-0.040;2023-02-10T14:27:16;11.65;;;1.55;;
45836;SDS011;31548;51.420;-0.040;2023-02-10T14:29:47;10.02;;;1.10;;
45836;SDS011;31548;51.420;-0.040;2023-02-10T14:32:42;13.82;;;1.30;;
45836;SDS011;31548;51.420;-0.040;2023-02-10T14:35:16;16.38;;;2.03;;
45836;SDS011;31548;51.420;-0.040;2023-02-10T14:37:55;11.48;;;1.45;;
45836;SDS011;31548;51.420;-0.040;2023-02-10T14:40:25;13.93;;;1.48;;
45836;SDS011;31548;51.420;-0.040;2023-02-10T14:42:56;13.85;;;2.15;;
45836;SDS011;31548;51.420;-0.040;2023-02-10T14:45:26;16.45;;;1.08;;
45836;SDS011;31548;51.420;-0.040;2023-02-10T14:47:55;15.38;;;1.80;;
45836;SDS011;31548;51.420;-0.040;2023-02-10T14:50:24;12.85;;;1.63;;
45836;SDS011;31548;51.420;-0.040;2023-02-10T14:52:53;11.38;;;1.83;;
45836;SDS011;31548;51.420;-0.040;2023-02-10T14:55:21;14.48;;;1.50;;
45836;SDS011;31548;51.420;-0.040;2023-02-10T14:57:51;13.63;;;1.73;;
45836;SDS011;31548;51.420;-0.040;2023-02-10T15:00:18;15.43;;;1.65;;
45836;SDS011;31548;51.420;-0.040;2023-02-10T15:02:47;11.75;;;1.50;;
45836;SDS011;31548;51.420;-0.040;2023-02-10T15:05:18;16.88;;;3.05;;
45836;SDS011;31548;51.420;-0.040;2023-02-10T15:07:47;15.02;;;1.90;;
45836;SDS011;31548;51.420;-0.040;2023-02-10T15:10:29;10.63;;;1.77;;
45836;SDS011;31548;51.420;-0.040;2023-02-10T15:13:00;17.92;;;2.20;;
45836;SDS011;31548;51.420;-0.040;2023-02-10T15:15:35;27.65;;;3.50;;
45836;SDS011;31548;51.420;-0.040;2023-02-10T15:18:08;12.13;;;2.28;;
45836;SDS011;31548;51.420;-0.040;2023-02-10T15:20:38;21.27;;;2.90;;
45836;SDS011;31548;51.420;-0.040;2023-02-10T15:23:11;20.55;;;6.38;;
45836;SDS011;31548;51.420;-0.040;2023-02-10T15:26:03;19.55;;;3.47;;
45836;SDS011;31548;51.420;-0.040;2023-02-10T15:28:34;7.97;;;2.08;;
45836;SDS011;31548;51.420;-0.040;2023-02-10T15:31:13;13.77;;;2.45;;
45836;SDS011;31548;51.420;-0.040;2023-02-10T15:36:20;22.42;;;3.10;;
45836;SDS011;31548;51.420;-0.040;2023-02-10T15:44:00;10.82;;;1.38;;
45836;SDS011;31548;51.420;-0.040;2023-02-10T15:46:31;21.48;;;2.80;;
45836;SDS011;31548;51.420;-0.040;2023-02-10T15:49:06;15.10;;;1.70;;
45836;SDS011;31548;51.420;-0.040;2023-02-10T15:51:39;15.00;;;2.10;;
45836;SDS011;31548;51.420;-0.040;2023-02-10T15:54:15;12.70;;;2.10;;
45836;SDS011;31548;51.420;-0.040;2023-02-10T15:56:57;10.02;;;2.90;;
45836;SDS011;31548;51.420;-0.040;2023-02-10T15:59:30;9.75;;;2.47;;
45836;SDS011;31548;51.420;-0.040;2023-02-10T16:01:58;21.15;;;2.70;;
45836;SDS011;31548;51.420;-0.040;2023-02-10T16:04:27;11.90;;;2.25;;
45836;SDS011;31548;51.420;-0.040;2023-02-10T16:06:56;12.20;;;1.90;;
45836;SDS011;31548;51.420;-0.040;2023-02-10T16:09:26;16.38;;;2.10;;
45836;SDS011;31548;51.420;-0.040;2023-02-10T16:11:54;14.20;;;2.03;;
45836;SDS011;31548;51.420;-0.040;2023-02-10T16:14:21;10.57;;;2.53;;
45836;SDS011;31548;51.420;-0.040;2023-02-10T16:16:52;16.90;;;2.13;;
45836;SDS011;31548;51.420;-0.040;2023-02-10T16:19:22;13.50;;;2.50;;
45836;SDS011;31548;51.420;-0.040;2023-02-10T16:21:51;17.40;;;1.77;;
45836;SDS011;31548;51.420;-0.040;2023-02-10T16:24:23;11.15;;;2.38;;
45836;SDS011;31548;51.420;-0.040;2023-02-10T16:26:55;16.27;;;1.70;;
45836;SDS011;31548;51.420;-0.040;2023-02-10T16:29:28;11.57;;;2.25;;
45836;SDS011;31548;51.420;-0.040;2023-02-10T16:31:57;13.68;;;2.15;;
45836;SDS011;31548;51.420;-0.040;2023-02-10T16:34:26;16.98;;;2.33;;
45836;SDS011;31548;51.420;-0.040;2023-02-10T16:36:56;11.68;;;1.77;;
45836;SDS011;31548;51.420;-0.040;2023-02-10T16:39:24;9.30;;;1.48;;
45836;SDS011;31548;51.420;-0.040;2023-02-10T16:41:52;10.40;;;1.45;;
45836;SDS011;31548;51.420;-0.040;2023-02-10T16:44:20;22.85;;;3.13;;
45836;SDS011;31548;51.420;-0.040;2023-02-10T16:46:47;14.10;;;1.77;;
45836;SDS011;31548;51.420;-0.040;2023-02-10T16:49:16;14.70;;;2.28;;
45836;SDS011;31548;51.420;-0.040;2023-02-10T16:51:44;13.55;;;2.70;;
45836;SDS011;31548;51.420;-0.040;2023-02-10T16:54:12;6.35;;;1.55;;
45836;SDS011;31548;51.420;-0.040;2023-02-10T16:56:40;9.40;;;1.20;;
45836;SDS011;31548;51.420;-0.040;2023-02-10T16:59:11;13.25;;;1.52;;
45836;SDS011;31548;51.420;-0.040;2023-02-10T17:01:41;10.95;;;1.77;;
45836;SDS011;31548;51.420;-0.040;2023-02-10T17:04:09;13.32;;;3.10;;
45836;SDS011;31548;51.420;-0.040;2023-02-10T17:06:45;11.88;;;1.65;;
45836;SDS011;31548;51.420;-0.040;2023-02-10T17:09:16;17.70;;;1.98;;
45836;SDS011;31548;51.420;-0.040;2023-02-10T17:11:46;18.40;;;1.92;;